Time;durP1;ratioP1;P1;durP2;ratioP2;P2;SDS_P1;SDS_P2;PMS_P1;PMS_P2;Temp;Humidity;BMP_temperature;BMP_pressure;BME280_temperature;BME280_humidity;BME280_pressure;Samples;Min_cycle;Max_cycle;Signal;HPM_P1;HPM_P2
2022/01/06 00:02:59;;;;;;;4.75;3.87;;;;;;;10.11;56.01;98539.23;2111386;92;25783;-86
2022/01/06 00:06:30;;;;;;;7.45;3.60;;;;;;;10.11;55.98;98534.02;2109604;91;25905;-85
2022/01/06 00:10:12;;;;;;;7.03;3.35;;;;;;;10.10;56.01;98533.60;2130460;92;25726;-85
2022/01/06 00:13:54;;;;;;;7.92;3.55;;;;;;;10.08;56.03;98528.39;2130260;89;25817;-84
2022/01/06 00:24:55;;;;;;;7.75;3.87;;;;;;;10.03;56.07;98524.09;2132839;91;25996;-86
2022/01/06 00:28:21;;;;;;;4.72;3.17;;;;;;;10.02;56.10;98521.03;2113853;91;25874;-86
2022/01/06 00:31:46;;;;;;;4.53;3.00;;;;;;;10.00;56.12;98525.41;2129791;92;25827;-84
2022/01/06 00:35:33;;;;;;;5.28;3.33;;;;;;;9.98;56.11;98517.58;2134639;89;25706;-87
2022/01/06 00:42:43;;;;;;;5.67;3.72;;;;;;;9.92;56.11;98515.89;2013967;96;26059;-84
2022/01/06 00:46:08;;;;;;;5.55;3.27;;;;;;;9.90;56.11;98524.13;2032489;95;25856;-85
2022/01/06 00:49:47;;;;;;;6.47;3.77;;;;;;;9.89;56.11;98521.55;2026743;95;25484;-85
2022/01/06 00:53:19;;;;;;;6.60;3.58;;;;;;;9.88;56.09;98518.48;1947388;99;25763;-86
2022/01/06 00:56:42;;;;;;;6.80;3.22;;;;;;;9.86;56.11;98515.05;1956669;99;26011;-85
2022/01/06 01:00:14;;;;;;;6.47;3.15;;;;;;;9.84;56.08;98517.63;1966914;98;26406;-86
2022/01/06 01:03:46;;;;;;;6.28;3.30;;;;;;;9.83;56.08;98508.55;1950400;98;26977;-87
2022/01/06 01:07:07;;;;;;;8.48;3.65;;;;;;;9.83;56.08;98513.75;1967261;98;25855;-86
2022/01/06 01:10:41;;;;;;;5.78;3.22;;;;;;;9.82;56.10;98518.50;1967190;98;25711;-85
2022/01/06 01:18:04;;;;;;;4.67;2.77;;;;;;;9.81;56.09;98511.14;2013512;97;25924;-85
2022/01/06 01:21:33;;;;;;;5.87;3.42;;;;;;;9.80;56.04;98509.85;2015621;96;25817;-85
2022/01/06 01:25:12;;;;;;;;;;;;;;;;;;;;;
2022/01/06 01:28:54;;;;;;;6.75;4.08;;;;;;;9.78;56.00;98523.30;2015698;97;25703;-84
2022/01/06 01:32:28;;;;;;;6.25;3.50;;;;;;;9.76;55.93;98503.80;2039635;96;25711;-84
2022/01/06 01:36:02;;;;;;;6.62;3.75;;;;;;;9.75;55.94;98498.14;2115288;90;25763;-85
2022/01/06 01:39:36;;;;;;;7.72;3.85;;;;;;;9.76;55.92;98496.44;2140543;91;26040;-86
2022/01/06 01:43:06;;;;;;;5.40;3.60;;;;;;;9.75;55.88;98494.23;2140436;91;25841;-85
2022/01/06 01:50:21;;;;;;;6.53;3.55;;;;;;;9.74;55.85;98504.23;2089866;92;25935;-84
2022/01/06 01:53:48;;;;;;;4.37;3.87;;;;;;;9.74;55.83;98509.42;2090407;92;25788;-85
2022/01/06 01:57:25;;;;;;;7.70;3.70;;;;;;;9.73;55.79;98509.45;2100128;91;25855;-84
2022/01/06 02:00:54;;;;;;;7.03;3.47;;;;;;;9.73;55.80;98521.16;2132193;91;25900;-86
2022/01/06 02:04:16;;;;;;;4.25;2.80;;;;;;;9.72;55.78;98520.30;2128046;91;25964;-83
2022/01/06 02:07:51;;;;;;;6.40;3.52;;;;;;;9.72;55.79;98505.98;2127081;91;26031;-84
2022/01/06 02:11:28;;;;;;;8.45;3.10;;;;;;;9.72;55.83;98516.80;2133352;91;25611;-83
2022/01/06 02:14:56;;;;;;;;;;;;;;;9.72;55.85;98518.99;2113725;91;25691;-84
2022/01/06 02:18:24;;;;;;;4.45;2.80;;;;;;;9.74;55.89;98518.53;2125005;91;26314;-84
2022/01/06 02:21:48;;;;;;;9.33;4.17;;;;;;;9.73;55.92;98517.25;2121613;91;25704;-83
2022/01/06 02:25:21;;;;;;;4.83;2.92;;;;;;;9.74;55.96;98528.94;2057626;93;27130;-84
2022/01/06 02:29:07;;;;;;;6.17;2.80;;;;;;;9.74;55.95;98514.63;2124172;91;25295;-85
2022/01/06 02:32:35;;;;;;;3.72;2.70;;;;;;;9.75;55.96;98513.75;2124405;91;25756;-83
2022/01/06 02:36:14;;;;;;;3.95;2.60;;;;;;;9.75;55.99;98515.05;2123625;91;25451;-83
2022/01/06 02:39:42;;;;;;;4.47;2.67;;;;;;;9.75;56.00;98512.45;2039875;95;25850;-86
2022/01/06 02:43:08;;;;;;;4.10;2.85;;;;;;;9.76;56.00;98518.11;2005089;96;26518;-85
2022/01/06 02:46:56;;;;;;;4.03;2.75;;;;;;;9.77;56.02;98515.06;2067889;92;25857;-85
2022/01/06 02:50:20;;;;;;;4.30;2.35;;;;;;;9.77;56.02;98514.63;2115641;92;25906;-85
2022/01/06 02:53:59;;;;;;;4.90;2.98;;;;;;;9.77;56.04;98508.13;2100187;93;25783;-85
2022/01/06 02:57:36;;;;;;;3.02;2.72;;;;;;;9.77;56.03;98505.52;2112545;92;25763;-84
2022/01/06 03:01:02;;;;;;;4.70;2.65;;;;;;;9.78;56.04;98505.94;2076897;93;26185;-85
2022/01/06 03:04:33;;;;;;;;;;;;;;;9.79;56.04;98506.83;2091316;93;25830;-85
2022/01/06 03:08:00;;;;;;;4.05;2.20;;;;;;;9.78;56.02;98505.08;2086281;93;25891;-85
2022/01/06 03:11:30;;;;;;;2.52;2.08;;;;;;;9.76;56.01;98506.40;2066636;94;25412;-85
2022/01/06 03:15:05;;;;;;;3.95;1.75;;;;;;;9.76;56.03;98513.34;2059383;94;26494;-85
2022/01/06 03:18:44;;;;;;;2.80;1.50;;;;;;;9.77;56.07;98518.53;2073620;93;25767;-86
2022/01/06 03:22:24;;;;;;;3.87;1.87;;;;;;;9.78;56.07;98509.84;2075431;93;25755;-84
2022/01/06 03:25:46;;;;;;;3.30;1.57;;;;;;;9.78;56.07;98525.45;2084074;93;25937;-84
2022/01/06 03:29:14;;;;;;;3.35;1.98;;;;;;;9.79;56.13;98531.55;2076646;93;25970;-86
2022/01/06 03:32:54;;;;;;;3.50;1.65;;;;;;;9.80;56.11;98529.37;2075301;93;25660;-85
2022/01/06 03:36:42;;;;;;;2.02;1.50;;;;;;;9.80;56.10;98523.73;2123414;91;25749;-85
2022/01/06 03:40:20;;;;;;;3.77;2.02;;;;;;;9.80;56.11;98530.23;2141622;90;25800;-86
2022/01/06 03:43:49;;;;;;;2.92;1.60;;;;;;;9.80;56.12;98547.15;2151522;91;25744;-85
2022/01/06 03:47:31;;;;;;;3.20;2.00;;;;;;;9.82;56.11;98541.92;2145249;90;25928;-85
2022/01/06 03:51:00;;;;;;;3.08;1.77;;;;;;;9.82;56.11;98544.52;2147261;90;25815;-86
2022/01/06 03:54:27;;;;;;;3.65;1.60;;;;;;;9.82;56.13;98551.03;2143500;90;25811;-84
2022/01/06 03:58:09;;;;;;;2.60;1.95;;;;;;;9.82;56.12;98547.13;2186511;88;25919;-84
2022/01/06 04:01:34;;;;;;;1.67;1.10;;;;;;;9.82;56.13;98555.83;2200356;88;25933;-84
2022/01/06 04:04:59;;;;;;;1.92;1.50;;;;;;;9.83;56.14;98560.16;2206173;86;25742;-85
2022/01/06 04:08:29;;;;;;;4.70;2.27;;;;;;;9.85;56.15;98562.73;2203947;88;25738;-85
2022/01/06 04:12:11;;;;;;;3.08;1.52;;;;;;;9.85;56.17;98555.79;2202973;88;25698;-84
2022/01/06 04:15:36;;;;;;;;;;;;;;;9.85;56.19;98570.11;2221455;87;25814;-83
2022/01/06 04:18:57;;;;;;;2.72;1.65;;;;;;;9.86;56.20;98573.16;2189575;88;25754;-82
2022/01/06 04:22:23;;;;;;;2.10;1.80;;;;;;;9.84;56.22;98574.89;2205755;88;25914;-83
2022/01/06 04:26:10;;;;;;;2.70;1.67;;;;;;;9.84;56.21;98577.48;2220346;87;25948;-84
2022/01/06 04:29:34;;;;;;;2.47;1.50;;;;;;;9.85;56.23;98571.84;2203419;88;25679;-83
2022/01/06 04:33:06;;;;;;;2.70;1.25;;;;;;;9.85;56.24;98575.75;2162162;88;25666;-83
2022/01/06 04:36:29;;;;;;;2.65;1.70;;;;;;;9.84;56.26;98568.38;2204277;88;25774;-84
2022/01/06 04:40:04;;;;;;;2.98;1.65;;;;;;;9.85;56.29;98577.91;2205385;88;25733;-84
2022/01/06 04:43:32;;;;;;;2.00;1.65;;;;;;;9.85;56.30;98580.52;2223470;87;25670;-84
2022/01/06 04:47:04;;;;;;;2.95;1.20;;;;;;;9.84;56.31;98582.70;2206374;88;26142;-84
2022/01/06 04:50:34;;;;;;;1.85;1.47;;;;;;;9.84;56.32;98573.59;2204023;88;25753;-84
2022/01/06 04:54:06;;;;;;;2.98;1.57;;;;;;;9.85;56.32;98586.16;2203860;88;25698;-84
2022/01/06 04:57:33;;;;;;;2.15;1.45;;;;;;;9.62;56.33;98545.91;2202284;88;25724;-84
2022/01/06 05:01:00;;;;;;;3.87;1.47;;;;;;;9.85;56.34;98599.17;2204436;88;25864;-85
2022/01/06 05:04:41;;;;;;;3.17;1.35;;;;;;;9.85;56.35;98597.43;2202924;88;25732;-85
2022/01/06 05:08:11;;;;;;;1.35;1.20;;;;;;;9.84;56.36;98601.35;2203613;88;25746;-85
2022/01/06 05:11:35;;;;;;;1.75;1.25;;;;;;;9.85;56.38;98603.08;2199875;88;25998;-86
2022/01/06 05:14:58;;;;;;;2.45;1.30;;;;;;;9.86;56.40;98614.80;2207691;88;25710;-86
2022/01/06 05:18:44;;;;;;;2.25;1.27;;;;;;;9.85;56.41;98620.85;2205366;88;25847;-85
2022/01/06 05:22:17;;;;;;;1.95;1.67;;;;;;;9.85;56.40;98620.85;2205179;88;25639;-85
2022/01/06 05:25:47;;;;;;;2.00;1.40;;;;;;;9.85;56.42;98617.39;2198084;88;26111;-85
2022/01/06 05:29:17;;;;;;;2.05;1.35;;;;;;;9.85;56.41;98613.05;2195914;88;25784;-84
2022/01/06 05:32:38;;;;;;;2.12;1.72;;;;;;;9.84;56.40;98612.63;2221350;87;25676;-86
2022/01/06 05:36:12;;;;;;;2.37;1.00;;;;;;;9.83;56.43;98612.20;2210302;88;25950;-84
2022/01/06 05:39:38;;;;;;;1.50;1.30;;;;;;;9.83;56.44;98610.90;2228823;88;25796;-85
2022/01/06 05:43:07;;;;;;;1.55;1.30;;;;;;;9.83;56.44;98621.31;2229184;88;25823;-84
2022/01/06 05:46:47;;;;;;;1.80;1.30;;;;;;;9.84;56.45;98617.83;2204604;88;25676;-85
2022/01/06 05:50:15;;;;;;;1.98;1.20;;;;;;;9.84;56.45;98622.17;2161755;90;25775;-84
2022/01/06 05:53:58;;;;;;;1.87;1.25;;;;;;;9.83;56.43;98623.91;2162705;90;25721;-84
2022/01/06 05:57:35;;;;;;;3.02;1.55;;;;;;;9.84;56.44;98626.94;2152579;90;25781;-85
2022/01/06 06:01:09;;;;;;;;;;;;;;;;;;;;;
2022/01/06 06:04:46;;;;;;;1.87;1.07;;;;;;;9.83;56.43;98647.77;2157235;90;25738;-84
2022/01/06 06:08:13;;;;;;;1.92;1.57;;;;;;;9.83;56.42;98655.14;2170109;89;25805;-84
2022/01/06 06:11:41;;;;;;;1.57;1.00;;;;;;;9.83;56.40;98662.09;2178494;90;25900;-85
2022/01/06 06:15:12;;;;;;;1.25;1.02;;;;;;;9.82;56.39;98666.43;2176974;89;26056;-85
2022/01/06 06:18:39;;;;;;;1.45;1.17;;;;;;;9.82;56.38;98675.54;2181152;89;25699;-85
2022/01/06 06:22:39;;;;;;;0.80;0.80;;;;;;;9.82;56.40;98686.36;2162884;89;25799;-84
2022/01/06 06:29:31;;;;;;;1.50;0.93;;;;;;;9.82;56.40;98695.47;2105895;92;25680;-84
2022/01/06 06:32:54;;;;;;;1.82;0.90;;;;;;;9.81;56.41;98698.94;2104545;91;25956;-83
2022/01/06 06:36:35;;;;;;;1.32;1.00;;;;;;;9.81;56.43;98702.41;2101877;93;25772;-85
2022/01/06 06:39:59;;;;;;;2.60;1.20;;;;;;;9.82;56.42;98705.87;2102274;92;25813;-87
2022/01/06 06:43:27;;;;;;;1.35;1.25;;;;;;;9.82;56.42;98711.08;2101177;92;25927;-85
2022/01/06 06:46:55;;;;;;;1.65;1.25;;;;;;;9.82;56.42;98717.17;2107521;92;26039;-85
2022/01/06 06:50:31;;;;;;;2.90;0.90;;;;;;;9.81;56.41;98718.47;2112853;91;25785;-84
2022/01/06 06:54:14;;;;;;;1.92;1.30;;;;;;;9.81;56.41;98729.73;2124657;91;25869;-84
2022/01/06 06:57:42;;;;;;;1.45;1.10;;;;;;;9.82;56.43;98738.00;2122509;92;25834;-83
2022/01/06 07:01:06;;;;;;;1.30;0.98;;;;;;;9.82;56.37;98744.91;2121116;88;25954;-84
2022/01/06 07:04:32;;;;;;;1.10;0.88;;;;;;;9.82;56.37;98745.80;2113510;91;25788;-85
2022/01/06 07:08:20;;;;;;;3.12;1.17;;;;;;;9.82;56.37;98756.22;2115657;92;25769;-86
2022/01/06 07:11:48;;;;;;;1.45;1.35;;;;;;;9.82;56.35;98757.92;2126388;92;25783;-85
2022/01/06 07:15:31;;;;;;;2.17;1.15;;;;;;;9.82;56.33;98760.13;2103877;92;25703;-85
2022/01/06 07:19:01;;;;;;;1.42;1.07;;;;;;;9.83;56.32;98764.45;2000540;96;25871;-86
2022/01/06 07:22:30;;;;;;;3.55;1.10;;;;;;;9.83;56.31;98774.86;1997980;96;25749;-85
2022/01/06 07:25:53;;;;;;;2.20;1.20;;;;;;;9.85;56.28;98782.66;2031595;93;25939;-84
2022/01/06 07:29:21;;;;;;;2.15;1.25;;;;;;;9.88;56.24;98788.73;2050694;93;25943;-85
2022/01/06 07:32:58;;;;;;;1.45;1.00;;;;;;;9.89;56.17;98789.63;2067932;94;25715;-84
2022/01/06 07:36:28;;;;;;;1.17;0.90;;;;;;;9.90;56.16;98790.91;2003793;98;25727;-85
2022/01/06 07:39:55;;;;;;;;;;;;;;;9.92;56.12;98806.52;2006343;97;26379;-84
2022/01/06 07:43:32;;;;;;;2.10;1.10;;;;;;;9.93;56.08;98810.44;2004958;97;25853;-84
2022/01/06 07:47:13;;;;;;;1.35;1.25;;;;;;;9.96;56.08;98807.41;2007535;97;26342;-85
2022/01/06 07:50:48;;;;;;;1.45;1.00;;;;;;;10.00;55.99;98819.56;1981170;99;25748;-85
2022/01/06 07:54:17;;;;;;;2.37;1.62;;;;;;;10.03;55.95;98828.23;1975447;99;25704;-84
2022/01/06 07:57:51;;;;;;;1.37;1.05;;;;;;;10.05;55.89;98837.34;1964487;99;26023;-83
2022/01/06 08:01:21;;;;;;;2.75;0.90;;;;;;;10.05;55.88;98834.73;1967430;99;26036;-83
2022/01/06 08:08:20;;;;;;;1.52;1.02;;;;;;;10.05;55.80;98834.73;1923654;100;25854;-85
2022/01/06 08:11:42;;;;;;;1.10;0.95;;;;;;;10.04;55.81;98848.63;1926685;100;25825;-85
2022/01/06 08:15:10;;;;;;;1.50;1.07;;;;;;;10.03;55.74;98852.97;1951895;96;25568;-83
2022/01/06 08:18:46;;;;;;;1.00;0.90;;;;;;;10.02;55.69;98847.30;2011064;96;25885;-85
2022/01/06 08:22:41;;;;;;;2.75;0.98;;;;;;;10.02;55.65;98849.05;2008662;96;25898;-84
2022/01/06 08:26:00;;;;;;;1.53;1.17;;;;;;;10.02;55.62;98855.55;2015865;96;25799;-83
2022/01/06 08:29:23;;;;;;;1.55;1.15;;;;;;;10.01;55.58;98859.90;2019431;96;25916;-83
2022/01/06 08:32:59;;;;;;;1.32;0.82;;;;;;;10.02;55.54;98859.02;2077155;93;26112;-86
2022/01/06 08:36:29;;;;;;;1.32;1.10;;;;;;;10.02;55.49;98877.69;2088727;92;25771;-85
2022/01/06 08:43:40;;;;;;;1.87;1.10;;;;;;;10.02;55.48;98893.30;2098045;93;25899;-85
2022/01/06 08:47:22;;;;;;;1.40;1.05;;;;;;;10.04;55.44;98894.19;2104684;92;25763;-84
2022/01/06 08:50:48;;;;;;;3.55;1.30;;;;;;;10.07;55.43;98905.48;2099927;93;25931;-84
2022/01/06 08:54:34;;;;;;;1.57;1.20;;;;;;;10.13;55.41;98903.33;2091985;93;25943;-82
2022/01/06 08:58:01;;;;;;;1.10;0.95;;;;;;;10.17;55.30;98913.73;2106700;93;25709;-84
2022/01/06 09:01:28;;;;;;;1.80;1.22;;;;;;;10.22;55.19;98905.92;2086955;93;25915;-86
2022/01/06 09:05:02;;;;;;;1.22;0.93;;;;;;;10.26;55.11;98915.94;2095856;92;25807;-85
2022/01/06 09:08:26;;;;;;;1.07;0.98;;;;;;;10.29;55.07;98919.45;2100055;93;25845;-86
2022/01/06 09:12:17;;;;;;;1.72;1.05;;;;;;;10.33;55.02;98917.28;2064081;90;25822;-84
2022/01/06 09:15:43;;;;;;;1.70;1.20;;;;;;;10.35;54.93;98915.95;2035187;95;25854;-84
2022/01/06 09:19:11;;;;;;;2.30;1.20;;;;;;;10.35;54.89;98919.43;2082961;92;25687;-84
2022/01/06 09:26:40;;;;;;;1.35;0.98;;;;;;;10.33;54.76;98921.63;1977990;97;26324;-82
2022/01/06 09:30:26;;;;;;;2.50;1.42;;;;;;;10.31;54.75;98935.06;1938729;100;25811;-84
2022/01/06 09:34:02;;;;;;;2.30;1.37;;;;;;;10.29;54.74;98936.38;1889365;103;25951;-86
2022/01/06 09:37:51;;;;;;;1.30;1.02;;;;;;;10.28;54.71;98948.94;1889822;103;25865;-84
2022/01/06 09:41:32;;;;;;;1.90;1.50;;;;;;;10.26;54.65;98950.70;1888983;102;25806;-85
2022/01/06 09:45:10;;;;;;;1.77;1.00;;;;;;;10.24;54.62;98956.73;1891240;103;25842;-90
2022/01/06 09:48:42;;;;;;;2.70;1.55;;;;;;;10.22;54.62;98961.05;1869702;103;25886;-86
2022/01/06 09:52:27;;;;;;;1.35;0.98;;;;;;;10.19;54.61;98960.59;1887399;102;25912;-86
2022/01/06 09:56:03;;;;;;;1.05;0.95;;;;;;;10.18;54.60;98957.57;1888429;104;26240;-86
2022/01/06 09:59:41;;;;;;;;;;;;;;;;;;;;;
2022/01/06 10:03:27;;;;;;;2.33;1.30;;;;;;;10.16;54.60;98962.79;1878816;104;26681;-92
2022/01/06 10:07:13;;;;;;;2.15;1.35;;;;;;;10.15;54.59;98971.45;1838702;106;25903;-84
2022/01/06 10:10:46;;;;;;;1.55;1.42;;;;;;;10.14;54.61;98966.25;1845368;107;26288;-86
2022/01/06 10:14:43;;;;;;;;;;;;;;;;;;;;;
2022/01/06 10:18:25;;;;;;;1.40;0.90;;;;;;;10.14;54.57;98974.06;1838564;106;26074;-87
2022/01/06 10:25:52;;;;;;;2.27;1.30;;;;;;;10.13;54.59;98976.23;1845174;104;25786;-89
2022/01/06 10:33:41;;;;;;;1.62;1.00;;;;;;;10.10;54.61;98999.22;1913162;102;25902;-88
2022/01/06 10:41:37;;;;;;;2.25;1.17;;;;;;;10.09;54.62;98996.19;1784925;109;25793;-89
2022/01/06 10:55:42;;;;;;;1.87;1.15;;;;;;;10.10;54.57;99016.59;1750708;110;25738;-88
2022/01/06 10:59:44;;;;;;;;;;;;;;;;;;;;;
2022/01/06 11:03:39;;;;;;;2.33;1.22;;;;;;;10.06;54.64;99023.95;1741418;112;25817;-81
2022/01/06 11:07:18;;;;;;;2.60;1.65;;;;;;;10.07;54.68;99024.38;1751590;112;33082;-90
2022/01/06 11:14:42;;;;;;;2.10;1.60;;;;;;;10.09;54.69;99029.14;1731461;112;26112;-86
2022/01/06 11:18:34;;;;;;;2.30;1.70;;;;;;;10.10;54.77;99021.80;1742997;111;25877;-91
2022/01/06 11:22:29;;;;;;;4.50;1.60;;;;;;;10.14;54.78;99028.74;1794456;107;25924;-82
2022/01/06 11:30:27;;;;;;;4.58;1.42;;;;;;;10.22;55.51;99030.93;1787389;109;25934;-82
2022/01/06 11:33:52;;;;;;;5.47;1.98;;;;;;;10.23;55.60;99038.34;1801529;107;26040;-83
2022/01/06 11:37:44;;;;;;;2.20;1.37;;;;;;;10.22;55.68;99042.65;1822110;104;25976;-87
2022/01/06 11:41:32;;;;;;;2.83;2.02;;;;;;;10.21;55.66;99038.75;1826432;104;26320;-88
2022/01/06 11:45:43;;;;;;;3.45;1.90;;;;;;;10.19;55.62;99045.23;1790855;107;25964;-86
2022/01/06 11:49:34;;;;;;;2.75;1.22;;;;;;;10.19;55.58;99049.14;1796622;108;25884;-90
2022/01/06 11:53:54;;;;;;;3.55;1.98;;;;;;;10.18;55.56;99050.02;1788514;108;25891;-82
2022/01/06 11:57:41;;;;;;;2.10;1.80;;;;;;;10.14;55.55;99048.27;1788008;108;25885;-81
2022/01/06 12:01:38;;;;;;;5.17;2.15;;;;;;;10.12;55.55;99054.80;1755227;109;26074;-87
2022/01/06 12:05:49;;;;;;;;;;;;;;;;;;;;;
2022/01/06 12:09:50;;;;;;;3.45;1.77;;;;;;;10.06;55.53;99061.27;1765385;109;26596;-85
2022/01/06 12:12:52;;;;;;;4.87;1.98;;;;;;;10.08;55.52;99069.94;1755241;109;25868;-80
2022/01/06 12:16:39;;;;;;;2.85;1.82;;;;;;;10.07;55.49;99073.85;1730813;110;25866;-86
2022/01/06 12:24:47;;;;;;;;;;;;;;;10.05;55.42;99093.80;1740807;111;25939;-83
2022/01/06 12:28:40;;;;;;;;;;;;;;;10.01;55.39;99104.63;1701787;112;26710;-84
2022/01/06 12:45:17;;;;;;;;;;;;;;;;;;;;;
2022/01/06 12:49:57;;;;;;;;;;;;;;;;;;;;;
2022/01/06 12:54:34;;;;;;;;;;;;;;;;;;;;;
2022/01/06 12:59:27;;;;;;;;;;;;;;;;;;;;;
2022/01/06 13:03:19;;;;;;;;;;;;;;;;;;;;;
2022/01/06 13:06:59;;;;;;;1.92;1.32;;;;;;;9.64;55.05;99218.02;1742019;111;26001;-83
2022/01/06 13:11:22;;;;;;;3.37;1.60;;;;;;;9.63;55.03;99225.39;1741366;111;25887;-81
2022/01/06 13:15:25;;;;;;;2.80;1.62;;;;;;;9.61;54.97;99237.07;1758752;111;25976;-85
2022/01/06 13:27:14;;;;;;;2.15;1.42;;;;;;;9.69;55.96;99257.98;1790546;107;25856;-82
2022/01/06 13:30:59;;;;;;;1.98;1.57;;;;;;;9.69;55.67;99256.69;1795838;106;25961;-83
2022/01/06 13:35:26;;;;;;;;;;;;;;;;;;;;;
2022/01/06 13:52:17;;;;;;;;;;;;;;;;;;;;;
2022/01/06 13:56:37;;;;;;;3.12;1.90;;;;;;;9.57;55.33;99305.56;1898290;102;26168;-84
2022/01/06 14:00:18;;;;;;;2.47;1.62;;;;;;;9.54;55.33;99312.03;1890538;103;25993;-84
2022/01/06 14:04:08;;;;;;;2.47;1.70;;;;;;;9.52;55.32;99325.47;1876910;103;26037;-90
2022/01/06 14:07:58;;;;;;;1.85;1.20;;;;;;;9.51;55.33;99328.03;1844224;104;25829;-82
2022/01/06 14:11:49;;;;;;;;;;;;;;;;;;;;;
2022/01/06 14:15:05;;;;;;;3.77;1.47;;;;;;;9.46;55.35;99344.47;1882576;102;26523;-84
2022/01/06 14:18:44;;;;;;;1.92;1.60;;;;;;;9.45;55.34;99356.17;1912950;101;25911;-88
2022/01/06 14:22:18;;;;;;;1.67;1.30;;;;;;;9.42;55.29;99358.30;1933617;101;25933;-88
2022/01/06 14:26:01;;;;;;;;;;;;;;;;;;;;;
2022/01/06 14:29:30;;;;;;;1.80;1.15;;;;;;;9.39;55.26;99363.91;1962879;100;25868;-92
2022/01/06 14:33:28;;;;;;;2.40;1.22;;;;;;;9.37;55.23;99378.17;1952388;99;26101;-86
2022/01/06 14:41:23;;;;;;;1.75;1.10;;;;;;;9.34;55.17;99396.77;1859208;105;25963;-84
2022/01/06 14:45:27;;;;;;;;;;;;;;;;;;;;;
2022/01/06 14:49:22;;;;;;;;;;;;;;;;;;;;;
2022/01/06 14:53:38;;;;;;;1.40;1.07;;;;;;;9.26;55.07;99421.81;1787671;106;26140;-92
2022/01/06 15:16:00;;;;;;;3.05;1.20;;;;;;;9.12;54.91;99480.13;1760333;109;26048;-83
2022/01/06 15:19:43;;;;;;;;;;;;;;;;;;;;;
2022/01/06 15:27:53;;;;;;;1.80;1.30;;;;;;;9.01;54.71;99512.47;1664788;116;26047;-80
2022/01/06 15:31:32;;;;;;;1.30;1.12;;;;;;;8.98;54.65;99516.32;1640499;119;25913;-88
2022/01/06 15:39:22;;;;;;;;;;;;;;;;;;;;;
2022/01/06 15:43:05;;;;;;;1.50;1.30;;;;;;;8.92;54.59;99527.91;1589354;121;26091;-88
2022/01/06 15:55:23;;;;;;;2.98;1.80;;;;;;;8.86;54.41;99543.40;1665502;117;25942;-87
2022/01/06 15:59:11;;;;;;;2.00;1.42;;;;;;;8.84;54.44;99561.98;1578130;123;26206;-80
2022/01/06 16:07:11;;;;;;;;;;;;;;;;;;;;;
2022/01/06 16:11:01;;;;;;;;;;;;;;;;;;;;;
2022/01/06 16:16:05;;;;;;;;;;;;;;;;;;;;;
2022/01/06 16:24:55;;;;;;;3.47;1.42;;;;;;;8.77;54.46;99588.70;1570677;121;25927;-83
2022/01/06 16:28:56;;;;;;;;;;;;;;;;;;;;;
2022/01/06 16:32:29;;;;;;;2.00;1.55;;;;;;;8.73;54.35;99608.14;1544115;122;25960;-82
2022/01/06 16:36:29;;;;;;;2.70;1.32;;;;;;;8.71;54.37;99616.35;1588496;119;25995;-94
2022/01/06 16:40:25;;;;;;;2.10;1.60;;;;;;;8.70;54.34;99625.40;1678453;114;26056;-85
2022/01/06 16:44:03;;;;;;;2.42;1.57;;;;;;;8.67;54.35;99631.44;1723749;110;25906;-86
2022/01/06 16:47:51;;;;;;;1.95;1.22;;;;;;;8.66;54.35;99640.48;1738509;111;25937;-90
2022/01/06 16:51:34;;;;;;;2.05;1.42;;;;;;;8.64;54.39;99640.87;1742875;108;25919;-83
2022/01/06 16:55:09;;;;;;;1.90;1.37;;;;;;;8.63;54.40;99643.02;1751831;108;25924;-79
2022/01/06 16:58:39;;;;;;;1.75;1.40;;;;;;;8.60;54.38;99654.22;1751476;111;26045;-84
2022/01/06 17:02:41;;;;;;;2.45;1.32;;;;;;;8.59;54.39;99661.58;1759736;109;25929;-78
2022/01/06 17:05:48;;;;;;;1.85;1.22;;;;;;;8.58;54.40;99670.22;1762074;109;26079;-82
2022/01/06 17:09:17;;;;;;;1.82;1.35;;;;;;;8.58;54.43;99677.14;1773593;107;25905;-83
2022/01/06 17:12:41;;;;;;;2.02;1.80;;;;;;;8.56;54.44;99687.48;1772229;107;26357;-87
2022/01/06 17:16:16;;;;;;;2.40;1.40;;;;;;;8.56;54.47;99691.81;1779894;107;26004;-78
2022/01/06 17:19:46;;;;;;;2.22;1.60;;;;;;;8.54;54.48;99701.28;1770554;107;26024;-85
2022/01/06 17:23:12;;;;;;;2.47;1.80;;;;;;;8.53;54.44;99710.80;1778477;107;25626;-90
2022/01/06 17:26:45;;;;;;;2.60;1.37;;;;;;;8.52;54.38;99710.36;1780655;107;25868;-85
2022/01/06 17:30:18;;;;;;;2.35;1.30;;;;;;;8.50;54.37;99722.03;1771636;107;25832;-86
2022/01/06 17:41:50;;;;;;;2.37;1.20;;;;;;;8.45;54.34;99737.92;1707284;112;25923;-88
2022/01/06 18:18:23;;;;;;;;;;;;;;;;;;;;;
2022/01/06 18:22:34;;;;;;;3.62;2.72;;;;;;;8.24;54.05;99776.38;1616702;120;26021;-86
2022/01/06 18:25:27;;;;;;;2.22;1.85;;;;;;;8.22;54.02;99789.73;1610629;119;26280;-90
2022/01/06 18:32:48;;;;;;;2.85;1.95;;;;;;;8.20;53.99;99808.28;1699356;112;25979;-89
2022/01/06 18:36:31;;;;;;;;;;;;;;;;;;;;;
2022/01/06 18:39:52;;;;;;;2.02;1.42;;;;;;;8.19;53.88;99825.58;1774538;109;26365;-89
2022/01/06 18:43:29;;;;;;;2.27;1.67;;;;;;;8.18;53.88;99836.82;1800764;108;26167;-86
2022/01/06 18:47:05;;;;;;;3.17;1.82;;;;;;;8.18;53.88;99836.82;1847677;106;25419;-87
2022/01/06 18:50:42;;;;;;;2.40;1.47;;;;;;;8.19;53.79;99847.66;1830280;106;25897;-89
2022/01/06 18:58:16;;;;;;;4.83;2.05;;;;;;;8.17;53.75;99844.59;1780651;108;25541;-90
2022/01/06 19:02:39;;;;;;;2.95;1.67;;;;;;;8.18;53.74;99852.82;1836477;105;25755;-89
2022/01/06 19:39:44;;;;;;;1.75;1.65;;;;;;;8.03;53.43;99924.69;1648489;118;25696;-77
2022/01/06 19:43:51;;;;;;;2.22;1.52;;;;;;;8.01;53.40;99944.55;1670452;114;26284;-88
2022/01/06 19:52:57;;;;;;;2.17;1.77;;;;;;;8.00;53.38;99952.77;1670177;113;25793;-79
2022/01/06 19:56:50;;;;;;;;;;;;;;;;;;;;;
2022/01/06 20:00:27;;;;;;;;;;;;;;;;;;;;;
2022/01/06 20:07:57;;;;;;;2.65;1.80;;;;;;;7.96;53.09;99983.77;1691703;115;25990;-91
2022/01/06 20:12:09;;;;;;;1.87;1.60;;;;;;;7.95;52.94;99993.27;1648561;118;26145;-84
2022/01/06 20:21:01;;;;;;;1.60;1.35;;;;;;;7.91;52.80;100004.41;1694894;115;25856;-91
2022/01/06 20:25:21;;;;;;;;;;;;;;;;;;;;;
2022/01/06 20:32:25;;;;;;;4.03;2.33;;;;;;;7.91;53.01;100007.44;1739989;111;25961;-89
2022/01/06 20:39:58;;;;;;;1.98;1.35;;;;;;;7.89;53.06;100041.53;1727613;111;26081;-86
2022/01/06 20:43:43;;;;;;;3.60;1.70;;;;;;;7.89;53.07;100042.41;1739346;110;25890;-91
2022/01/06 20:47:32;;;;;;;2.05;1.35;;;;;;;7.90;53.04;100052.41;1743547;111;25937;-84
2022/01/06 20:54:22;;;;;;;3.65;1.60;;;;;;;7.87;53.02;100063.56;1726410;112;26118;-83
2022/01/06 20:58:00;;;;;;;2.10;1.30;;;;;;;7.87;53.01;100062.27;1701768;115;26075;-85
2022/01/06 21:01:30;;;;;;;3.58;1.35;;;;;;;7.86;53.02;100065.67;1740564;111;25999;-87
2022/01/06 21:05:08;;;;;;;1.98;1.12;;;;;;;7.86;53.03;100066.97;1675062;115;25664;-89
2022/01/06 21:12:21;;;;;;;3.10;1.25;;;;;;;7.84;52.99;100076.88;1675483;116;25870;-89
2022/01/06 21:15:45;;;;;;;1.87;1.25;;;;;;;7.82;52.89;100091.08;1675950;114;27193;-85
2022/01/06 21:19:21;;;;;;;1.92;1.17;;;;;;;7.81;52.84;100081.55;1693278;114;25850;-83
2022/01/06 21:23:01;;;;;;;;;;;;;;;;;;;;;
2022/01/06 21:30:29;;;;;;;2.85;1.35;;;;;;;7.77;52.60;100106.52;1625384;118;26206;-87
2022/01/06 22:02:27;;;;;;;;;;;;;;;7.51;52.30;100150.23;1688120;114;25915;-82
2022/01/06 22:10:15;;;;;;;4.03;1.00;;;;;;;7.42;52.55;100165.48;1717438;110;25932;-88
2022/01/06 22:14:03;;;;;;;1.47;0.90;;;;;;;7.57;52.77;100175.08;1687169;112;26069;-85
2022/01/06 22:18:58;;;;;;;;;;;;;;;;;;;;;
2022/01/06 22:22:14;;;;;;;1.22;0.80;;;;;;;7.56;52.66;100194.95;1702946;113;25921;-83
2022/01/06 22:26:11;;;;;;;5.03;1.10;;;;;;;7.52;52.63;100200.84;1671184;115;25975;-81
2022/01/06 22:29:55;;;;;;;1.67;1.00;;;;;;;7.48;52.61;100200.29;1682159;115;25970;-80
2022/01/06 22:33:25;;;;;;;2.62;1.10;;;;;;;7.44;52.61;100211.40;1652755;114;26655;-84
2022/01/06 23:15:15;;;;;;;1.72;1.05;;;;;;;7.15;52.61;100254.47;1721978;111;25750;-81
2022/01/06 23:25:46;;;;;;;;;;;;;;;;;;;;;
2022/01/06 23:30:12;;;;;;;;;;;;;;;;;;;;;
2022/01/06 23:34:00;;;;;;;3.40;1.30;;;;;;;7.05;52.57;100271.82;1619022;119;25887;-84
2022/01/06 23:37:38;;;;;;;1.92;1.32;;;;;;;7.01;52.56;100272.55;1612261;119;26220;-85
2022/01/06 23:45:57;;;;;;;;;;;;;;;;;;;;;
2022/01/06 23:50:06;;;;;;;4.37;1.70;;;;;;;6.96;52.56;100271.09;1564041;123;25909;-87
2022/01/06 23:53:55;;;;;;;2.62;1.50;;;;;;;6.96;52.54;100281.88;1558132;122;26056;-86
2022/01/06 23:57:20;;;;;;;3.50;2.12;;;;;;;6.93;52.53;100281.34;1549750;122;25851;-86
